Time;durP1;ratioP1;P1;durP2;ratioP2;P2;SDS_P1;SDS_P2;PMS_P1;PMS_P2;Temp;Humidity;BMP_temperature;BMP_pressure;BME280_temperature;BME280_humidity;BME280_pressure;Samples;Min_cycle;Max_cycle;Signal;HPM_P1;HPM_P2
2023/03/15 00:00:41;;;;;;;3.78;1.00;;;;;;;4.30;80.29;100977.09;3611748;39;20082;-66
2023/03/15 00:03:07;;;;;;;2.15;1.00;;;;;;;4.33;80.60;100977.00;3610690;39;20098;-66
2023/03/15 00:05:33;;;;;;;2.55;1.25;;;;;;;4.21;80.57;100958.78;3610835;39;20051;-66
2023/03/15 00:08:00;;;;;;;5.80;1.10;;;;;;;4.36;79.90;100976.03;3608322;39;20058;-66
2023/03/15 00:10:27;;;;;;;1.20;0.90;;;;;;;4.34;80.18;100967.22;3608116;39;20052;-66
2023/03/15 00:12:53;;;;;;;2.65;1.20;;;;;;;4.38;79.94;100972.41;3606907;39;20102;-67
2023/03/15 00:15:19;;;;;;;4.50;1.30;;;;;;;4.41;80.53;100964.31;3611481;39;20090;-66
2023/03/15 00:17:45;;;;;;;1.60;1.15;;;;;;;4.40;80.38;100967.88;3608804;39;20377;-66
2023/03/15 00:20:17;;;;;;;3.50;1.35;;;;;;;4.48;79.98;100978.28;3610844;39;20044;-66
2023/03/15 00:22:42;;;;;;;4.53;1.30;;;;;;;4.50;80.18;100981.75;3607890;39;20331;-67
2023/03/15 00:25:08;;;;;;;3.75;1.65;;;;;;;4.52;80.27;100974.59;3605734;39;20058;-66
2023/03/15 00:27:34;;;;;;;4.10;1.55;;;;;;;4.45;79.92;100967.75;3610919;39;20059;-66
2023/03/15 00:29:59;;;;;;;3.33;1.35;;;;;;;4.52;80.11;100984.38;3614899;39;20120;-67
2023/03/15 00:32:25;;;;;;;5.80;1.88;;;;;;;4.56;80.28;100983.34;3612026;39;20054;-66
2023/03/15 00:34:53;;;;;;;4.68;1.30;;;;;;;4.60;81.56;100985.00;3605857;39;20046;-67
2023/03/15 00:37:20;;;;;;;4.03;1.60;;;;;;;4.60;80.12;100983.19;3599014;39;20039;-67
2023/03/15 00:39:48;;;;;;;3.92;1.45;;;;;;;4.67;80.00;100983.00;3608102;39;20094;-67
2023/03/15 00:42:14;;;;;;;7.13;1.58;;;;;;;4.67;80.50;100988.31;3611896;39;20051;-68
2023/03/15 00:44:44;;;;;;;3.38;1.38;;;;;;;4.66;80.08;100984.75;3610041;39;20334;-68
2023/03/15 00:47:12;;;;;;;1.80;1.25;;;;;;;4.67;80.65;100997.16;3608053;39;20332;-67
2023/03/15 00:49:38;;;;;;;1.75;1.27;;;;;;;4.65;79.93;100988.34;3608962;39;20049;-68
2023/03/15 00:52:05;;;;;;;3.13;1.60;;;;;;;4.48;79.95;100958.78;3608666;39;20145;-69
2023/03/15 00:54:34;;;;;;;2.83;1.60;;;;;;;4.70;80.11;100985.53;3608697;39;20055;-69
2023/03/15 00:57:02;;;;;;;5.53;1.77;;;;;;;4.71;80.12;100982.81;3609361;39;20302;-69
2023/03/15 00:59:33;;;;;;;3.88;1.83;;;;;;;4.69;79.98;100981.97;3607184;39;20050;-69
2023/03/15 01:02:05;;;;;;;5.88;1.63;;;;;;;4.50;80.72;100946.28;3608432;39;20050;-69
2023/03/15 01:04:31;;;;;;;7.72;2.17;;;;;;;4.71;80.96;100982.81;3609726;39;20065;-71
2023/03/15 01:06:58;;;;;;;4.32;1.67;;;;;;;4.76;80.71;100985.34;3603203;39;20051;-69
2023/03/15 01:09:24;;;;;;;5.75;1.52;;;;;;;4.72;80.21;100971.22;3605908;39;20058;-70
2023/03/15 01:11:50;;;;;;;4.20;1.90;;;;;;;4.67;81.00;100967.00;3607247;39;20059;-69
2023/03/15 01:14:17;;;;;;;7.47;2.40;;;;;;;4.34;80.80;100904.22;3605689;39;20405;-69
2023/03/15 01:16:44;;;;;;;5.28;3.10;;;;;;;4.79;80.36;100991.41;3610278;39;20123;-68
2023/03/15 01:19:12;;;;;;;5.88;3.38;;;;;;;4.29;80.39;100906.19;3611305;39;20293;-68
2023/03/15 01:21:38;;;;;;;4.38;3.33;;;;;;;4.80;80.44;100997.59;3604318;39;20081;-69
2023/03/15 01:24:04;;;;;;;7.88;4.40;;;;;;;4.75;80.61;100994.22;3604393;39;20078;-68
2023/03/15 01:26:30;;;;;;;10.48;5.55;;;;;;;4.76;80.00;100998.66;3603829;39;20047;-69
2023/03/15 01:28:56;;;;;;;9.40;5.97;;;;;;;4.70;80.21;101001.53;3607240;39;20069;-69
2023/03/15 01:31:27;;;;;;;8.45;6.10;;;;;;;4.69;80.62;101008.63;3610019;39;20091;-69
2023/03/15 01:33:53;;;;;;;9.52;6.70;;;;;;;4.38;80.53;100961.78;3601217;39;20466;-69
2023/03/15 01:36:19;;;;;;;8.23;6.55;;;;;;;4.51;79.96;100987.97;3608586;39;20055;-68
2023/03/15 01:38:46;;;;;;;9.75;7.15;;;;;;;4.67;80.29;101013.13;3612012;39;20084;-69
2023/03/15 01:41:13;;;;;;;8.98;6.93;;;;;;;4.65;80.59;101010.50;3606559;39;20050;-69
2023/03/15 01:43:45;;;;;;;7.68;6.90;;;;;;;4.69;80.45;101019.25;3605376;39;20055;-69
2023/03/15 01:46:25;;;;;;;10.85;8.25;;;;;;;4.62;80.45;101018.59;3600482;39;20554;-70
2023/03/15 01:49:25;;;;;;;10.35;8.68;;;;;;;3.87;80.22;100887.22;3606900;39;20371;-66
2023/03/15 01:52:07;;;;;;;11.52;9.13;;;;;;;4.56;81.01;101017.94;3596948;39;20043;-65
2023/03/15 01:55:11;;;;;;;10.25;8.98;;;;;;;4.53;80.41;101016.25;3614284;39;20370;-66
2023/03/15 01:57:54;;;;;;;11.85;9.82;;;;;;;4.54;81.26;101023.34;3609871;39;20055;-66
2023/03/15 02:00:20;;;;;;;12.45;9.55;;;;;;;4.52;81.07;101018.97;3604980;39;20051;-66
2023/03/15 02:02:59;;;;;;;13.35;9.95;;;;;;;4.45;80.93;101025.44;3607331;39;20110;-66
2023/03/15 02:05:34;;;;;;;11.20;10.07;;;;;;;4.49;81.51;101029.72;3611333;39;20071;-68
2023/03/15 02:08:03;;;;;;;11.50;10.07;;;;;;;4.46;81.51;101035.16;3606906;39;20059;-67
2023/03/15 02:10:42;;;;;;;12.75;11.23;;;;;;;4.46;81.78;101035.16;3607376;39;20513;-67
2023/03/15 02:13:13;;;;;;;12.88;11.43;;;;;;;4.41;82.11;101043.31;3605830;39;20067;-67
2023/03/15 02:15:45;;;;;;;13.00;11.15;;;;;;;4.46;82.04;101054.66;3605847;39;20060;-67
2023/03/15 02:18:12;;;;;;;11.50;10.30;;;;;;;4.45;82.23;101055.59;3609106;39;20039;-67
2023/03/15 02:21:28;;;;;;;12.95;11.10;;;;;;;4.38;81.93;101051.38;3608468;39;20316;-68
2023/03/15 02:24:16;;;;;;;12.25;10.95;;;;;;;4.32;81.73;101048.94;3593551;39;20107;-67
2023/03/15 02:26:52;;;;;;;14.55;11.75;;;;;;;4.20;82.40;101044.84;3608589;39;20310;-67
2023/03/15 02:29:18;;;;;;;15.40;12.25;;;;;;;4.29;82.32;101052.56;3605449;39;20067;-67
2023/03/15 02:31:44;;;;;;;16.33;12.38;;;;;;;4.33;83.08;101062.16;3612498;39;20058;-67
2023/03/15 02:34:10;;;;;;;13.75;10.82;;;;;;;4.31;82.99;101058.66;3609240;39;20095;-67
2023/03/15 02:36:36;;;;;;;13.55;11.52;;;;;;;4.33;82.94;101055.97;3608565;39;20062;-67
2023/03/15 02:39:15;;;;;;;12.85;11.20;;;;;;;4.25;82.78;101042.94;3606677;39;20139;-68
2023/03/15 02:41:48;;;;;;;13.43;11.07;;;;;;;4.30;82.51;101054.28;3607808;39;20096;-67
2023/03/15 02:44:21;;;;;;;15.07;11.23;;;;;;;4.34;82.18;101057.72;3605621;39;20061;-67
2023/03/15 02:46:53;;;;;;;13.32;10.32;;;;;;;4.34;82.27;101063.91;3607234;39;20051;-67
2023/03/15 02:49:26;;;;;;;11.45;9.93;;;;;;;4.30;82.38;101061.41;3606509;39;20050;-67
2023/03/15 02:51:52;;;;;;;11.88;9.60;;;;;;;4.31;81.88;101073.78;3611111;39;20052;-66
2023/03/15 02:54:17;;;;;;;10.88;9.48;;;;;;;4.27;81.34;101070.34;3606934;39;20059;-67
2023/03/15 02:56:43;;;;;;;11.93;9.80;;;;;;;4.25;81.74;101073.97;3606774;39;20054;-67
2023/03/15 02:59:11;;;;;;;10.57;9.07;;;;;;;4.24;81.40;101078.41;3607549;39;20059;-67
2023/03/15 03:01:37;;;;;;;12.07;10.77;;;;;;;4.19;80.92;101070.59;3611750;39;20054;-68
2023/03/15 03:04:04;;;;;;;12.85;10.23;;;;;;;4.19;80.95;101091.03;3610071;39;20086;-67
2023/03/15 03:06:29;;;;;;;12.55;9.43;;;;;;;4.18;81.29;101089.25;3605982;39;20162;-67
2023/03/15 03:08:55;;;;;;;12.35;10.13;;;;;;;4.16;81.16;101094.63;3608869;39;20472;-68
2023/03/15 03:11:21;;;;;;;11.13;9.90;;;;;;;3.90;81.30;101062.63;3609947;39;20066;-67
2023/03/15 03:13:46;;;;;;;12.98;10.70;;;;;;;4.13;81.64;101104.50;3607954;39;20397;-68
2023/03/15 03:16:12;;;;;;;12.45;9.80;;;;;;;4.04;81.56;101113.63;3609445;39;20058;-68
2023/03/15 03:18:38;;;;;;;11.52;9.77;;;;;;;4.04;81.50;101118.09;3607343;39;20063;-68
2023/03/15 03:21:07;;;;;;;14.02;10.07;;;;;;;4.04;81.67;101118.09;3607356;39;20358;-68
2023/03/15 03:23:34;;;;;;;12.45;10.82;;;;;;;4.04;81.92;101124.28;3606020;39;20063;-68
2023/03/15 03:26:03;;;;;;;12.98;10.90;;;;;;;4.05;80.93;101125.13;3599284;39;20094;-69
2023/03/15 03:28:32;;;;;;;13.77;10.93;;;;;;;3.89;81.50;101119.41;3607843;39;20083;-68
2023/03/15 03:30:58;;;;;;;10.80;9.68;;;;;;;3.81;81.35;101106.34;3610769;39;20039;-69
2023/03/15 03:33:23;;;;;;;13.07;10.23;;;;;;;3.94;81.14;101136.97;3607661;39;20120;-69
2023/03/15 03:35:49;;;;;;;12.32;10.70;;;;;;;3.47;80.98;101070.09;3608422;39;20067;-69
2023/03/15 03:38:15;;;;;;;11.77;10.27;;;;;;;3.57;81.07;101093.75;3608239;39;20071;-69
2023/03/15 03:40:41;;;;;;;12.57;9.75;;;;;;;3.79;80.83;101145.41;3609837;39;20039;-69
2023/03/15 03:43:08;;;;;;;11.75;10.40;;;;;;;3.72;81.10;101150.03;3608563;39;20305;-70
2023/03/15 03:45:34;;;;;;;13.00;10.55;;;;;;;3.68;81.00;101158.13;3607717;39;20058;-71
2023/03/15 03:48:00;;;;;;;12.20;10.18;;;;;;;3.65;81.45;101161.75;3606554;39;20494;-69
2023/03/15 03:50:26;;;;;;;12.48;10.20;;;;;;;2.83;81.05;101029.38;3602498;39;20051;-71
2023/03/15 03:52:52;;;;;;;11.18;9.95;;;;;;;3.55;81.11;101162.88;3608396;39;20081;-70
2023/03/15 03:55:18;;;;;;;13.43;10.13;;;;;;;3.44;81.41;101149.91;3606695;39;20381;-71
2023/03/15 03:57:44;;;;;;;13.02;10.57;;;;;;;3.46;81.80;101164.03;3611341;39;20062;-71
2023/03/15 04:00:13;;;;;;;12.05;10.73;;;;;;;3.39;81.57;101159.78;3609868;39;20050;-71
2023/03/15 04:02:41;;;;;;;13.48;10.63;;;;;;;3.40;81.39;101172.16;3607012;39;20087;-72
2023/03/15 04:05:10;;;;;;;14.80;10.73;;;;;;;2.94;81.15;101106.97;3607595;39;20369;-72
2023/03/15 04:07:37;;;;;;;14.05;10.57;;;;;;;3.31;81.18;101174.19;3609337;39;20058;-71
2023/03/15 04:10:04;;;;;;;11.70;10.32;;;;;;;3.19;81.70;101183.34;3607989;39;20058;-71
2023/03/15 04:12:31;;;;;;;13.85;10.90;;;;;;;3.16;82.07;101178.97;3608625;39;20071;-71
2023/03/15 04:14:56;;;;;;;13.90;11.10;;;;;;;3.00;81.81;101159.91;3600198;39;20051;-72
2023/03/15 04:17:22;;;;;;;13.93;11.05;;;;;;;3.16;81.80;101191.41;3606598;39;20100;-72
2023/03/15 04:19:47;;;;;;;14.52;11.05;;;;;;;3.11;82.60;101193.28;3604953;39;20059;-72
2023/03/15 04:22:14;;;;;;;14.77;10.95;;;;;;;3.02;81.93;101197.94;3607507;39;20062;-71
2023/03/15 04:24:43;;;;;;;13.70;10.77;;;;;;;2.92;81.61;101192.91;3606879;39;20051;-72
2023/03/15 04:27:13;;;;;;;14.48;11.68;;;;;;;2.98;82.83;101212.22;3608319;39;20043;-71
2023/03/15 04:29:42;;;;;;;13.75;10.80;;;;;;;2.72;82.00;101175.63;3609695;39;21103;-71
2023/03/15 04:32:09;;;;;;;14.30;11.35;;;;;;;2.94;83.08;101212.31;3608886;39;20147;-71
2023/03/15 04:34:37;;;;;;;13.02;10.95;;;;;;;2.82;82.27;101194.88;3605374;39;20059;-71
2023/03/15 04:37:04;;;;;;;15.35;11.77;;;;;;;2.88;82.35;101226.59;3608089;39;20305;-70
2023/03/15 04:39:30;;;;;;;15.43;11.25;;;;;;;2.86;82.27;101224.91;3609060;39;20101;-70
2023/03/15 04:41:56;;;;;;;14.02;11.48;;;;;;;2.84;81.72;101230.22;3609445;39;20432;-69
2023/03/15 04:44:25;;;;;;;14.65;11.25;;;;;;;2.85;82.23;101229.31;3605855;39;20081;-68
2023/03/15 04:46:52;;;;;;;15.80;11.68;;;;;;;2.86;82.91;101240.84;3609733;39;20083;-69
2023/03/15 04:49:18;;;;;;;15.18;11.55;;;;;;;2.87;82.17;101237.25;3605887;39;20055;-69
2023/03/15 04:51:44;;;;;;;13.07;10.50;;;;;;;2.84;82.09;101238.19;3608573;39;20062;-69
2023/03/15 04:54:09;;;;;;;12.80;10.05;;;;;;;2.81;82.45;101248.88;3605130;39;20051;-69
2023/03/15 04:56:36;;;;;;;13.27;9.90;;;;;;;2.79;82.24;101242.72;3605047;39;20062;-69
2023/03/15 04:59:02;;;;;;;13.90;10.43;;;;;;;2.78;82.02;101243.66;3603402;39;20057;-69
2023/03/15 05:01:30;;;;;;;14.38;10.07;;;;;;;2.73;81.49;101245.56;3595841;39;20127;-69
2023/03/15 05:03:57;;;;;;;13.30;10.13;;;;;;;2.72;82.35;101244.66;3605408;39;20120;-69
2023/03/15 05:06:23;;;;;;;12.18;10.10;;;;;;;2.68;81.15;101250.09;3610093;39;20369;-69
2023/03/15 05:08:49;;;;;;;14.25;10.65;;;;;;;2.70;81.53;101256.25;3606429;39;20054;-69
2023/03/15 05:11:15;;;;;;;14.02;10.60;;;;;;;2.67;82.49;101257.19;3607576;39;20413;-69
2023/03/15 05:13:41;;;;;;;13.48;10.27;;;;;;;2.63;81.83;101254.59;3609560;39;20054;-69
2023/03/15 05:16:07;;;;;;;13.95;10.45;;;;;;;2.62;81.79;101263.47;3607440;39;20316;-69
2023/03/15 05:18:32;;;;;;;13.25;10.05;;;;;;;2.60;82.35;101265.28;3607654;39;20051;-69
2023/03/15 05:20:58;;;;;;;11.45;9.15;;;;;;;2.57;82.39;101263.59;3607801;39;20912;-69
2023/03/15 05:23:24;;;;;;;12.05;10.23;;;;;;;2.58;81.60;101272.44;3608075;39;20051;-69
2023/03/15 05:25:55;;;;;;;11.48;9.68;;;;;;;2.57;83.06;101282.19;3609138;39;20102;-69
2023/03/15 05:28:23;;;;;;;11.90;9.73;;;;;;;2.55;82.48;101284.84;3604674;39;20055;-68
2023/03/15 05:30:51;;;;;;;11.40;9.43;;;;;;;2.53;82.84;101285.78;3603785;39;20067;-73
2023/03/15 05:33:17;;;;;;;13.82;10.65;;;;;;;2.50;82.28;101280.53;3608635;39;20063;-69
2023/03/15 05:35:43;;;;;;;13.48;10.20;;;;;;;2.47;81.73;101283.25;3607789;39;20061;-68
2023/03/15 05:38:13;;;;;;;13.98;10.35;;;;;;;2.37;81.78;101277.25;3609282;39;20067;-69
2023/03/15 05:40:43;;;;;;;13.50;10.38;;;;;;;2.43;81.95;101286.88;3608571;39;20297;-69
2023/03/15 05:43:09;;;;;;;14.55;10.45;;;;;;;2.41;82.39;101284.28;3608406;39;20043;-67
2023/03/15 05:45:35;;;;;;;14.13;9.98;;;;;;;2.41;82.21;101291.34;3606348;39;20059;-68
2023/03/15 05:48:01;;;;;;;13.82;10.57;;;;;;;2.32;82.08;101281.81;3605632;39;20282;-69
2023/03/15 05:50:27;;;;;;;12.93;10.43;;;;;;;2.34;82.08;101293.25;3597403;39;20066;-70
2023/03/15 05:52:53;;;;;;;15.55;10.63;;;;;;;2.32;83.09;101295.94;3610244;39;20047;-69
2023/03/15 05:55:19;;;;;;;12.85;10.18;;;;;;;2.16;82.01;101280.34;3608445;39;20039;-69
2023/03/15 05:57:45;;;;;;;12.50;9.48;;;;;;;2.30;83.27;101307.47;3608204;39;20417;-71
2023/03/15 06:00:13;;;;;;;13.27;9.77;;;;;;;2.32;83.05;101308.34;3606487;39;20063;-71
2023/03/15 06:02:41;;;;;;;15.48;10.88;;;;;;;2.31;82.30;101311.88;3608018;39;20057;-71
2023/03/15 06:05:07;;;;;;;13.40;10.05;;;;;;;2.25;82.44;101312.00;3609411;39;20090;-70
2023/03/15 06:07:32;;;;;;;12.68;9.95;;;;;;;2.29;82.92;101324.31;3606154;39;20103;-70
2023/03/15 06:09:58;;;;;;;12.25;9.75;;;;;;;2.28;83.11;101335.81;3608745;39;20070;-71
2023/03/15 06:12:24;;;;;;;13.10;9.73;;;;;;;2.29;83.16;101329.63;3607228;39;20049;-71
2023/03/15 06:14:50;;;;;;;12.65;9.60;;;;;;;2.29;83.48;101326.97;3607350;39;20047;-71
2023/03/15 06:17:15;;;;;;;15.35;10.40;;;;;;;2.04;82.98;101282.34;3608819;39;20063;-71
2023/03/15 06:19:41;;;;;;;14.75;10.57;;;;;;;2.36;84.12;101331.25;3608883;39;20062;-71
2023/03/15 06:22:07;;;;;;;14.20;10.95;;;;;;;2.40;83.52;101337.34;3608738;39;20054;-71
2023/03/15 06:24:33;;;;;;;13.98;10.32;;;;;;;2.42;82.77;101340.88;3607072;39;20043;-71
2023/03/15 06:26:59;;;;;;;14.25;10.40;;;;;;;2.00;84.09;101269.19;3607164;39;20349;-71
2023/03/15 06:29:25;;;;;;;15.23;10.38;;;;;;;2.55;83.53;101355.63;3607906;39;20035;-71
2023/03/15 06:31:51;;;;;;;15.93;10.63;;;;;;;2.66;83.17;101360.69;3610557;39;20431;-71
2023/03/15 06:34:18;;;;;;;14.75;10.82;;;;;;;2.77;84.54;101377.28;3609096;39;20079;-71
2023/03/15 06:36:44;;;;;;;15.00;11.32;;;;;;;2.90;84.62;101373.47;3602145;39;20047;-71
2023/03/15 06:39:11;;;;;;;14.70;10.70;;;;;;;3.06;84.00;101381.13;3603220;39;20051;-71
2023/03/15 06:41:38;;;;;;;16.50;11.25;;;;;;;3.24;83.99;101386.03;3606486;39;20055;-70
2023/03/15 06:44:04;;;;;;;14.30;9.95;;;;;;;3.40;83.91;101367.94;3607394;39;20059;-70
2023/03/15 06:46:30;;;;;;;14.13;11.02;;;;;;;3.65;82.82;101385.06;3607721;39;20063;-71
2023/03/15 06:48:55;;;;;;;13.45;10.50;;;;;;;3.73;82.12;101395.50;3609001;39;20058;-70
2023/03/15 06:51:21;;;;;;;15.60;10.48;;;;;;;3.69;81.54;101394.69;3609659;39;20062;-70
2023/03/15 06:53:47;;;;;;;12.70;10.18;;;;;;;3.10;80.99;101316.38;3600040;39;20121;-70
2023/03/15 06:56:13;;;;;;;12.50;10.13;;;;;;;3.70;81.47;101408.84;3606782;39;20061;-69
2023/03/15 06:58:38;;;;;;;13.50;10.68;;;;;;;3.72;81.45;101410.56;3608194;39;20394;-69
2023/03/15 07:01:04;;;;;;;13.30;9.60;;;;;;;3.70;81.73;101404.41;3608062;39;20070;-69
2023/03/15 07:03:30;;;;;;;13.00;9.88;;;;;;;3.75;81.21;101408.75;3608538;39;20069;-70
2023/03/15 07:05:56;;;;;;;12.77;10.27;;;;;;;3.73;81.69;101419.41;3608901;39;20059;-70
2023/03/15 07:08:24;;;;;;;13.73;10.32;;;;;;;3.74;81.95;101423.81;3609818;39;20046;-70
2023/03/15 07:10:50;;;;;;;15.35;10.52;;;;;;;3.38;81.61;101367.97;3611447;39;20043;-70
2023/03/15 07:13:18;;;;;;;11.50;9.85;;;;;;;3.72;82.00;101426.53;3614516;39;20111;-70
2023/03/15 07:15:44;;;;;;;13.23;10.50;;;;;;;3.72;81.87;101442.47;3609706;39;20054;-70
2023/03/15 07:18:09;;;;;;;14.15;10.75;;;;;;;3.76;81.96;101432.63;3615011;39;20083;-70
2023/03/15 07:20:35;;;;;;;16.08;10.77;;;;;;;3.77;82.06;101431.72;3609906;39;20043;-70
2023/03/15 07:23:01;;;;;;;13.15;10.20;;;;;;;3.98;82.40;101442.75;3609071;39;20066;-70
2023/03/15 07:25:27;;;;;;;13.23;10.63;;;;;;;4.12;82.44;101445.94;3608232;39;20069;-70
2023/03/15 07:27:53;;;;;;;13.75;10.88;;;;;;;4.25;82.13;101457.16;3608776;39;20285;-70
2023/03/15 07:30:20;;;;;;;14.13;11.45;;;;;;;4.48;82.90;101456.56;3610212;39;20058;-70
2023/03/15 07:32:46;;;;;;;12.80;10.32;;;;;;;4.64;81.04;101456.09;3608518;39;20044;-70
2023/03/15 07:35:13;;;;;;;11.73;9.77;;;;;;;4.68;79.84;101461.34;3608000;39;20065;-70
2023/03/15 07:37:39;;;;;;;12.80;10.10;;;;;;;4.65;80.10;101464.97;3606078;39;20095;-70
2023/03/15 07:40:09;;;;;;;14.77;10.13;;;;;;;4.73;80.13;101470.09;3608645;39;20299;-70
2023/03/15 07:42:41;;;;;;;12.57;9.80;;;;;;;4.35;80.33;101390.34;3608502;39;20043;-70
2023/03/15 07:45:09;;;;;;;12.07;9.60;;;;;;;4.71;79.53;101438.16;3610341;39;20379;-70
2023/03/15 07:47:35;;;;;;;12.98;9.50;;;;;;;5.11;80.46;101480.56;3606983;39;20055;-70
2023/03/15 07:50:00;;;;;;;14.25;9.32;;;;;;;5.41;79.50;101483.22;3613828;39;20059;-70
2023/03/15 07:52:26;;;;;;;11.88;9.65;;;;;;;5.85;79.58;101490.78;3609913;39;20102;-70
2023/03/15 07:54:52;;;;;;;13.75;8.98;;;;;;;6.26;78.30;101489.47;3608400;39;20394;-71
2023/03/15 07:57:17;;;;;;;13.48;8.32;;;;;;;6.56;75.49;101506.25;3600783;39;20048;-71
2023/03/15 07:59:43;;;;;;;9.90;7.88;;;;;;;6.80;73.99;101498.31;3613415;39;20055;-70
2023/03/15 08:02:13;;;;;;;9.75;7.13;;;;;;;7.07;74.29;101510.72;3608118;39;20066;-71
2023/03/15 08:04:39;;;;;;;9.13;7.60;;;;;;;7.34;72.40;101515.97;3609845;39;20065;-70
2023/03/15 08:07:06;;;;;;;9.63;6.32;;;;;;;7.54;70.15;101517.88;3607393;39;20335;-71
2023/03/15 08:09:34;;;;;;;9.10;5.80;;;;;;;7.67;69.60;101521.81;3607091;39;20147;-71
2023/03/15 08:12:01;;;;;;;11.32;5.78;;;;;;;7.50;68.18;101479.69;3609891;39;20305;-71
2023/03/15 08:14:27;;;;;;;7.72;5.53;;;;;;;7.91;67.55;101536.94;3610576;39;20739;-71
2023/03/15 08:16:53;;;;;;;7.15;5.10;;;;;;;8.05;67.82;101532.84;3609619;39;20055;-71
2023/03/15 08:19:19;;;;;;;7.80;5.18;;;;;;;8.14;66.05;101546.72;3610217;39;20420;-71
2023/03/15 08:21:44;;;;;;;7.10;4.65;;;;;;;8.27;66.44;101546.22;3607525;39;20046;-71
2023/03/15 08:24:11;;;;;;;7.10;4.80;;;;;;;8.48;65.77;101540.03;3604813;39;20309;-71
2023/03/15 08:26:37;;;;;;;6.90;4.60;;;;;;;8.63;64.91;101542.97;3607332;39;20054;-71
2023/03/15 08:29:03;;;;;;;6.05;4.15;;;;;;;8.79;64.63;101538.75;3608678;39;20081;-71
2023/03/15 08:31:29;;;;;;;6.47;4.43;;;;;;;8.90;64.69;101523.03;3610137;39;20077;-71
2023/03/15 08:33:55;;;;;;;4.68;4.15;;;;;;;9.00;62.23;101516.34;3610476;39;20381;-71
2023/03/15 08:36:21;;;;;;;5.32;4.18;;;;;;;9.28;60.56;101552.66;3610120;39;20072;-71
2023/03/15 08:38:46;;;;;;;7.45;4.03;;;;;;;9.00;61.33;101551.19;3612678;39;20053;-71
2023/03/15 08:41:12;;;;;;;7.07;3.88;;;;;;;9.03;61.36;101569.84;3605639;39;20290;-71
2023/03/15 08:43:37;;;;;;;6.80;3.65;;;;;;;9.09;60.83;101567.84;3605733;39;20412;-71
2023/03/15 08:46:03;;;;;;;7.03;4.30;;;;;;;9.21;60.76;101567.31;3608735;39;20085;-71
2023/03/15 08:48:30;;;;;;;4.93;3.80;;;;;;;9.49;60.83;101578.53;3606635;39;20074;-71
2023/03/15 08:51:05;;;;;;;6.80;3.63;;;;;;;9.68;61.10;101583.94;3605482;39;20071;-71
2023/03/15 08:53:32;;;;;;;7.70;3.90;;;;;;;9.94;59.15;101584.53;3606726;39;20059;-68
2023/03/15 08:55:58;;;;;;;4.82;3.22;;;;;;;9.98;57.85;101578.94;3607986;39;20058;-71
2023/03/15 08:58:24;;;;;;;4.22;3.30;;;;;;;10.09;57.77;101580.28;3606857;39;20067;-71
2023/03/15 09:00:50;;;;;;;5.90;3.42;;;;;;;10.26;57.51;101588.41;3604083;39;20066;-71
2023/03/15 09:03:18;;;;;;;6.32;3.22;;;;;;;10.34;57.33;101588.03;3605955;39;20057;-71
2023/03/15 09:05:44;;;;;;;7.97;3.53;;;;;;;10.18;56.19;101593.22;3605138;39;20063;-71
2023/03/15 09:08:09;;;;;;;7.95;3.40;;;;;;;10.11;56.52;101591.78;3611329;39;20058;-71
2023/03/15 09:10:35;;;;;;;4.03;3.03;;;;;;;10.37;57.46;101596.84;3614096;39;20313;-69
2023/03/15 09:13:01;;;;;;;7.25;2.92;;;;;;;10.69;56.64;101594.38;3607471;39;20066;-69
2023/03/15 09:15:27;;;;;;;6.22;3.00;;;;;;;10.85;54.67;101589.09;3603012;39;20059;-69
2023/03/15 09:17:52;;;;;;;4.80;2.05;;;;;;;10.97;53.93;101598.34;3606442;39;20055;-69
2023/03/15 09:20:21;;;;;;;4.15;1.90;;;;;;;10.96;51.35;101596.59;3603951;39;20302;-69
2023/03/15 09:22:57;;;;;;;2.30;2.10;;;;;;;11.10;52.25;101604.81;3606037;39;20054;-68
2023/03/15 09:25:25;;;;;;;4.10;2.40;;;;;;;11.19;53.07;101595.41;3605987;39;20059;-69
2023/03/15 09:27:51;;;;;;;4.63;2.70;;;;;;;11.23;53.36;101592.50;3606676;39;20296;-69
2023/03/15 09:30:18;;;;;;;5.30;2.47;;;;;;;11.35;51.97;101594.56;3603513;39;20226;-69
2023/03/15 09:32:44;;;;;;;5.53;2.83;;;;;;;11.59;53.14;101599.56;3603454;39;20051;-69
2023/03/15 09:35:18;;;;;;;4.72;2.63;;;;;;;11.67;50.73;101594.66;3604541;39;20051;-69
2023/03/15 09:37:44;;;;;;;8.10;2.90;;;;;;;11.75;50.55;101597.78;3606033;39;20101;-69
2023/03/15 09:40:29;;;;;;;3.80;2.25;;;;;;;11.67;50.22;101599.13;3604838;39;20063;-69
2023/03/15 09:44:04;;;;;;;6.40;2.70;;;;;;;11.09;50.62;101603.09;3608308;39;20450;-69
2023/03/15 09:46:51;;;;;;;;;;;;;;;10.81;51.33;101564.16;3568490;39;20121;-69
2023/03/15 09:49:28;;;;;;;4.68;2.35;;;;;;;11.39;51.35;101596.13;3593976;39;20216;-69
2023/03/15 09:52:10;;;;;;;7.85;2.92;;;;;;;11.65;50.84;101601.94;3605916;39;20059;-69
2023/03/15 09:54:56;;;;;;;5.68;2.08;;;;;;;11.72;48.97;101603.34;3594439;39;20091;-69
2023/03/15 09:57:46;;;;;;;7.30;1.90;;;;;;;11.98;48.26;101599.25;3606450;39;20091;-69
2023/03/15 10:00:38;;;;;;;5.75;2.17;;;;;;;11.89;45.82;101591.66;3604224;39;20059;-69
2023/03/15 10:03:08;;;;;;;5.22;2.28;;;;;;;11.75;46.93;101608.56;3601768;39;20054;-69
2023/03/15 10:05:46;;;;;;;7.13;2.00;;;;;;;11.91;47.52;101607.75;3604666;39;20059;-69
2023/03/15 10:08:16;;;;;;;5.07;2.10;;;;;;;11.99;46.74;101605.53;3604999;39;20136;-69
2023/03/15 10:11:25;;;;;;;5.78;1.95;;;;;;;12.25;46.37;101606.75;3605838;39;20043;-69
2023/03/15 10:14:22;;;;;;;6.15;1.70;;;;;;;12.60;44.85;101596.66;3591606;39;20055;-70
2023/03/15 10:16:50;;;;;;;5.47;1.50;;;;;;;12.70;44.37;101600.53;3610020;39;20058;-69
2023/03/15 10:20:00;;;;;;;6.72;1.70;;;;;;;12.81;43.32;101602.59;3607300;39;20055;-70
2023/03/15 10:22:51;;;;;;;5.85;2.20;;;;;;;12.99;44.06;101608.75;3577738;40;20057;-70
2023/03/15 10:25:25;;;;;;;5.20;1.52;;;;;;;13.01;42.22;101607.69;3598053;39;20400;-69
2023/03/15 10:28:32;;;;;;;4.05;1.80;;;;;;;12.96;44.42;101608.94;3605079;39;20328;-70
2023/03/15 10:31:16;;;;;;;5.03;1.63;;;;;;;13.09;42.57;101611.75;3603794;39;20282;-70
2023/03/15 10:33:45;;;;;;;4.63;1.33;;;;;;;12.90;39.77;101583.16;3597203;39;20057;-70
2023/03/15 10:36:19;;;;;;;9.50;1.92;;;;;;;13.13;42.28;101606.09;3608358;39;20080;-70
2023/03/15 10:38:47;;;;;;;4.82;2.03;;;;;;;13.23;42.70;101607.28;3606091;39;20158;-69
2023/03/15 10:41:53;;;;;;;4.88;1.58;;;;;;;13.38;42.35;101618.13;3606627;39;20593;-70
2023/03/15 10:44:25;;;;;;;4.97;1.75;;;;;;;13.30;39.99;101620.44;3602801;39;20059;-69
2023/03/15 10:47:06;;;;;;;2.63;1.10;;;;;;;13.36;39.78;101617.38;3608559;39;20051;-69
2023/03/15 10:49:38;;;;;;;3.20;1.10;;;;;;;13.45;38.85;101623.09;3608394;39;20043;-69
2023/03/15 10:52:06;;;;;;;5.05;1.60;;;;;;;13.57;38.76;101618.75;3597078;39;20199;-69
2023/03/15 10:54:34;;;;;;;3.28;1.20;;;;;;;13.54;38.64;101626.16;3606446;39;20051;-70
2023/03/15 10:57:17;;;;;;;7.38;1.50;;;;;;;13.49;38.20;101631.00;3609043;39;20043;-70
2023/03/15 11:00:08;;;;;;;4.60;1.50;;;;;;;13.21;39.58;101640.72;3605822;39;20285;-69
2023/03/15 11:02:36;;;;;;;7.35;1.65;;;;;;;12.98;40.06;101628.63;3607918;39;20051;-69
2023/03/15 11:05:21;;;;;;;7.93;2.00;;;;;;;13.22;40.42;101643.34;3609660;39;20055;-70
2023/03/15 11:08:00;;;;;;;6.10;1.45;;;;;;;13.68;40.80;101645.97;3607593;39;20057;-69
2023/03/15 11:10:34;;;;;;;5.53;1.55;;;;;;;14.00;39.14;101639.53;3608064;39;20065;-70
2023/03/15 11:13:21;;;;;;;4.75;1.77;;;;;;;14.44;38.47;101649.34;3609367;39;20062;-70
2023/03/15 11:16:25;;;;;;;3.78;1.15;;;;;;;14.64;36.23;101651.63;3604827;39;20043;-70
2023/03/15 11:19:00;;;;;;;2.17;1.02;;;;;;;14.90;34.14;101651.72;3604550;39;20047;-69
2023/03/15 11:21:32;;;;;;;5.63;1.58;;;;;;;15.00;32.94;101642.91;3604877;39;20059;-69
2023/03/15 11:24:03;;;;;;;1.83;1.10;;;;;;;15.26;32.25;101656.53;3609368;39;20054;-70
2023/03/15 11:26:36;;;;;;;3.83;1.30;;;;;;;15.44;33.52;101663.38;3609406;39;20375;-70
2023/03/15 11:29:34;;;;;;;2.15;0.90;;;;;;;15.65;32.53;101676.41;3604639;39;20060;-70
2023/03/15 11:32:14;;;;;;;1.83;1.10;;;;;;;15.52;30.38;101669.13;3592358;39;20066;-69
2023/03/15 11:35:05;;;;;;;3.25;0.98;;;;;;;14.78;30.76;101672.34;3605928;39;20055;-70
2023/03/15 11:37:43;;;;;;;3.42;1.15;;;;;;;14.13;33.57;101694.56;3603775;39;20602;-70